sensor_id;sensor_type;location;lat;lon;timestamp;P1;durP1;ratioP1;P2;durP2;ratioP2
66139;SDS011;52945;51.908;8.364;2022-11-21T00:01:13;10.20;;;4.70;;
66139;SDS011;52945;51.908;8.364;2022-11-21T00:04:22;14.60;;;5.63;;
66139;SDS011;52945;51.908;8.364;2022-11-21T00:07:23;13.20;;;5.25;;
66139;SDS011;52945;51.908;8.364;2022-11-21T00:10:24;11.48;;;5.20;;
66139;SDS011;52945;51.908;8.364;2022-11-21T00:13:25;13.07;;;5.72;;
66139;SDS011;52945;51.908;8.364;2022-11-21T00:16:25;15.52;;;6.18;;
66139;SDS011;52945;51.908;8.364;2022-11-21T00:19:26;14.15;;;5.38;;
66139;SDS011;52945;51.908;8.364;2022-11-21T00:22:27;16.38;;;6.05;;
66139;SDS011;52945;51.908;8.364;2022-11-21T00:25:27;12.85;;;5.65;;
66139;SDS011;52945;51.908;8.364;2022-11-21T00:28:28;13.20;;;5.18;;
66139;SDS011;52945;51.908;8.364;2022-11-21T00:31:29;12.45;;;5.70;;
66139;SDS011;52945;51.908;8.364;2022-11-21T00:34:30;15.48;;;6.13;;
66139;SDS011;52945;51.908;8.364;2022-11-21T00:37:31;12.40;;;5.32;;
66139;SDS011;52945;51.908;8.364;2022-11-21T00:40:32;9.60;;;4.57;;
66139;SDS011;52945;51.908;8.364;2022-11-21T00:43:33;13.05;;;5.75;;
66139;SDS011;52945;51.908;8.364;2022-11-21T00:46:34;12.93;;;6.47;;
66139;SDS011;52945;51.908;8.364;2022-11-21T00:49:34;18.90;;;5.90;;
66139;SDS011;52945;51.908;8.364;2022-11-21T00:52:35;12.25;;;5.57;;
66139;SDS011;52945;51.908;8.364;2022-11-21T00:55:35;11.30;;;5.38;;
66139;SDS011;52945;51.908;8.364;2022-11-21T00:58:36;11.10;;;5.35;;
66139;SDS011;52945;51.908;8.364;2022-11-21T01:01:37;13.85;;;4.88;;
66139;SDS011;52945;51.908;8.364;2022-11-21T01:04:37;10.93;;;4.72;;
66139;SDS011;52945;51.908;8.364;2022-11-21T01:07:38;8.55;;;4.85;;
66139;SDS011;52945;51.908;8.364;2022-11-21T01:10:38;12.70;;;5.22;;
66139;SDS011;52945;51.908;8.364;2022-11-21T01:13:39;14.75;;;5.32;;
66139;SDS011;52945;51.908;8.364;2022-11-21T01:16:40;12.15;;;4.95;;
66139;SDS011;52945;51.908;8.364;2022-11-21T01:19:41;12.10;;;5.22;;
66139;SDS011;52945;51.908;8.364;2022-11-21T01:22:41;18.38;;;6.38;;
66139;SDS011;52945;51.908;8.364;2022-11-21T01:25:42;13.02;;;5.55;;
66139;SDS011;52945;51.908;8.364;2022-11-21T01:28:43;11.00;;;5.15;;
66139;SDS011;52945;51.908;8.364;2022-11-21T01:31:44;11.13;;;4.88;;
66139;SDS011;52945;51.908;8.364;2022-11-21T01:34:45;11.43;;;5.18;;
66139;SDS011;52945;51.908;8.364;2022-11-21T01:37:46;9.20;;;4.80;;
66139;SDS011;52945;51.908;8.364;2022-11-21T01:40:47;10.90;;;4.68;;
66139;SDS011;52945;51.908;8.364;2022-11-21T01:43:48;11.27;;;5.38;;
66139;SDS011;52945;51.908;8.364;2022-11-21T01:46:49;11.32;;;4.07;;
66139;SDS011;52945;51.908;8.364;2022-11-21T01:49:51;7.28;;;4.05;;
66139;SDS011;52945;51.908;8.364;2022-11-21T01:52:52;11.20;;;4.72;;
66139;SDS011;52945;51.908;8.364;2022-11-21T01:55:53;7.63;;;4.28;;
66139;SDS011;52945;51.908;8.364;2022-11-21T01:58:54;10.13;;;4.47;;
66139;SDS011;52945;51.908;8.364;2022-11-21T02:01:58;10.60;;;4.68;;
66139;SDS011;52945;51.908;8.364;2022-11-21T02:05:03;10.90;;;3.80;;
66139;SDS011;52945;51.908;8.364;2022-11-21T02:08:13;8.52;;;3.63;;
66139;SDS011;52945;51.908;8.364;2022-11-21T02:14:41;12.20;;;4.75;;
66139;SDS011;52945;51.908;8.364;2022-11-21T02:17:42;9.10;;;3.90;;
66139;SDS011;52945;51.908;8.364;2022-11-21T02:20:44;6.93;;;3.30;;
66139;SDS011;52945;51.908;8.364;2022-11-21T02:23:52;7.47;;;3.85;;
66139;SDS011;52945;51.908;8.364;2022-11-21T02:27:01;6.68;;;3.80;;
66139;SDS011;52945;51.908;8.364;2022-11-21T02:30:04;10.38;;;4.45;;
66139;SDS011;52945;51.908;8.364;2022-11-21T02:33:06;8.13;;;3.95;;
66139;SDS011;52945;51.908;8.364;2022-11-21T02:36:26;10.23;;;3.92;;
66139;SDS011;52945;51.908;8.364;2022-11-21T02:39:34;10.27;;;4.30;;
66139;SDS011;52945;51.908;8.364;2022-11-21T02:45:52;10.48;;;3.63;;
66139;SDS011;52945;51.908;8.364;2022-11-21T02:48:53;12.27;;;4.30;;
66139;SDS011;52945;51.908;8.364;2022-11-21T02:51:56;9.85;;;4.35;;
66139;SDS011;52945;51.908;8.364;2022-11-21T02:54:56;10.57;;;3.95;;
66139;SDS011;52945;51.908;8.364;2022-11-21T02:57:57;12.00;;;4.82;;
66139;SDS011;52945;51.908;8.364;2022-11-21T03:00:58;7.63;;;4.00;;
66139;SDS011;52945;51.908;8.364;2022-11-21T03:03:58;11.35;;;4.75;;
66139;SDS011;52945;51.908;8.364;2022-11-21T03:06:59;10.20;;;4.30;;
66139;SDS011;52945;51.908;8.364;2022-11-21T03:09:59;10.80;;;4.15;;
66139;SDS011;52945;51.908;8.364;2022-11-21T03:13:00;13.25;;;4.82;;
66139;SDS011;52945;51.908;8.364;2022-11-21T03:16:01;13.23;;;5.60;;
66139;SDS011;52945;51.908;8.364;2022-11-21T03:19:01;10.70;;;4.80;;
66139;SDS011;52945;51.908;8.364;2022-11-21T03:22:02;10.55;;;4.80;;
66139;SDS011;52945;51.908;8.364;2022-11-21T03:25:03;13.77;;;5.20;;
66139;SDS011;52945;51.908;8.364;2022-11-21T03:28:04;11.13;;;4.40;;
66139;SDS011;52945;51.908;8.364;2022-11-21T03:31:04;13.60;;;4.75;;
66139;SDS011;52945;51.908;8.364;2022-11-21T03:34:05;13.40;;;4.93;;
66139;SDS011;52945;51.908;8.364;2022-11-21T03:37:05;9.35;;;3.95;;
66139;SDS011;52945;51.908;8.364;2022-11-21T03:40:06;14.02;;;5.97;;
66139;SDS011;52945;51.908;8.364;2022-11-21T03:43:07;11.82;;;4.78;;
66139;SDS011;52945;51.908;8.364;2022-11-21T03:46:07;11.20;;;4.68;;
66139;SDS011;52945;51.908;8.364;2022-11-21T03:49:08;14.57;;;4.30;;
66139;SDS011;52945;51.908;8.364;2022-11-21T03:52:09;15.48;;;4.80;;
66139;SDS011;52945;51.908;8.364;2022-11-21T03:55:10;12.65;;;5.28;;
66139;SDS011;52945;51.908;8.364;2022-11-21T03:58:10;11.85;;;5.13;;
66139;SDS011;52945;51.908;8.364;2022-11-21T04:01:11;10.77;;;4.93;;
66139;SDS011;52945;51.908;8.364;2022-11-21T04:04:12;11.13;;;4.75;;
66139;SDS011;52945;51.908;8.364;2022-11-21T04:07:13;10.95;;;5.20;;
66139;SDS011;52945;51.908;8.364;2022-11-21T04:10:13;12.38;;;5.20;;
66139;SDS011;52945;51.908;8.364;2022-11-21T04:13:14;12.02;;;4.22;;
66139;SDS011;52945;51.908;8.364;2022-11-21T04:16:15;11.57;;;5.20;;
66139;SDS011;52945;51.908;8.364;2022-11-21T04:19:15;12.52;;;4.88;;
66139;SDS011;52945;51.908;8.364;2022-11-21T04:22:16;9.77;;;4.53;;
66139;SDS011;52945;51.908;8.364;2022-11-21T04:25:16;11.20;;;4.45;;
66139;SDS011;52945;51.908;8.364;2022-11-21T04:28:17;11.88;;;5.55;;
66139;SDS011;52945;51.908;8.364;2022-11-21T04:31:18;11.52;;;4.75;;
66139;SDS011;52945;51.908;8.364;2022-11-21T04:34:18;11.25;;;5.22;;
66139;SDS011;52945;51.908;8.364;2022-11-21T04:37:19;14.40;;;6.18;;
66139;SDS011;52945;51.908;8.364;2022-11-21T04:40:20;10.02;;;4.80;;
66139;SDS011;52945;51.908;8.364;2022-11-21T04:43:20;13.30;;;5.53;;
66139;SDS011;52945;51.908;8.364;2022-11-21T04:46:21;15.88;;;5.57;;
66139;SDS011;52945;51.908;8.364;2022-11-21T04:49:21;16.05;;;5.55;;
66139;SDS011;52945;51.908;8.364;2022-11-21T04:52:22;10.77;;;4.72;;
66139;SDS011;52945;51.908;8.364;2022-11-21T04:55:24;11.98;;;5.57;;
66139;SDS011;52945;51.908;8.364;2022-11-21T04:58:30;16.50;;;5.90;;
66139;SDS011;52945;51.908;8.364;2022-11-21T05:01:30;12.65;;;5.30;;
66139;SDS011;52945;51.908;8.364;2022-11-21T05:04:31;12.35;;;6.10;;
66139;SDS011;52945;51.908;8.364;2022-11-21T05:07:31;16.70;;;6.30;;
66139;SDS011;52945;51.908;8.364;2022-11-21T05:10:32;12.77;;;5.00;;
66139;SDS011;52945;51.908;8.364;2022-11-21T05:16:53;13.05;;;5.68;;
66139;SDS011;52945;51.908;8.364;2022-11-21T05:19:54;17.02;;;6.10;;
66139;SDS011;52945;51.908;8.364;2022-11-21T05:22:54;16.50;;;5.65;;
66139;SDS011;52945;51.908;8.364;2022-11-21T05:25:55;14.02;;;5.50;;
66139;SDS011;52945;51.908;8.364;2022-11-21T05:28:55;10.32;;;5.05;;
66139;SDS011;52945;51.908;8.364;2022-11-21T05:31:56;13.88;;;5.15;;
66139;SDS011;52945;51.908;8.364;2022-11-21T05:34:56;15.80;;;5.68;;
66139;SDS011;52945;51.908;8.364;2022-11-21T05:37:57;12.80;;;4.88;;
66139;SDS011;52945;51.908;8.364;2022-11-21T05:40:58;12.63;;;5.63;;
66139;SDS011;52945;51.908;8.364;2022-11-21T05:43:58;11.75;;;4.50;;
66139;SDS011;52945;51.908;8.364;2022-11-21T05:46:59;14.18;;;5.28;;
66139;SDS011;52945;51.908;8.364;2022-11-21T05:49:59;11.68;;;5.25;;
66139;SDS011;52945;51.908;8.364;2022-11-21T05:53:01;14.63;;;5.82;;
66139;SDS011;52945;51.908;8.364;2022-11-21T05:56:05;10.63;;;4.85;;
66139;SDS011;52945;51.908;8.364;2022-11-21T05:59:09;12.68;;;5.75;;
66139;SDS011;52945;51.908;8.364;2022-11-21T06:02:10;11.23;;;5.05;;
66139;SDS011;52945;51.908;8.364;2022-11-21T06:05:29;12.13;;;5.35;;
66139;SDS011;52945;51.908;8.364;2022-11-21T06:08:31;11.43;;;5.30;;
66139;SDS011;52945;51.908;8.364;2022-11-21T06:11:38;12.52;;;5.35;;
66139;SDS011;52945;51.908;8.364;2022-11-21T06:14:39;12.52;;;5.70;;
66139;SDS011;52945;51.908;8.364;2022-11-21T06:17:40;13.05;;;6.38;;
66139;SDS011;52945;51.908;8.364;2022-11-21T06:20:40;14.52;;;6.30;;
66139;SDS011;52945;51.908;8.364;2022-11-21T06:23:41;17.65;;;6.05;;
66139;SDS011;52945;51.908;8.364;2022-11-21T06:26:41;14.75;;;6.05;;
66139;SDS011;52945;51.908;8.364;2022-11-21T06:29:42;14.40;;;6.03;;
66139;SDS011;52945;51.908;8.364;2022-11-21T06:32:43;13.48;;;5.95;;
66139;SDS011;52945;51.908;8.364;2022-11-21T06:35:43;15.07;;;6.32;;
66139;SDS011;52945;51.908;8.364;2022-11-21T06:38:44;12.68;;;5.43;;
66139;SDS011;52945;51.908;8.364;2022-11-21T06:41:45;17.10;;;5.88;;
66139;SDS011;52945;51.908;8.364;2022-11-21T06:44:49;15.43;;;6.07;;
66139;SDS011;52945;51.908;8.364;2022-11-21T06:47:50;17.05;;;5.80;;
66139;SDS011;52945;51.908;8.364;2022-11-21T06:50:51;13.60;;;5.28;;
66139;SDS011;52945;51.908;8.364;2022-11-21T06:53:52;12.60;;;6.43;;
66139;SDS011;52945;51.908;8.364;2022-11-21T06:56:54;15.52;;;6.13;;
66139;SDS011;52945;51.908;8.364;2022-11-21T06:59:55;15.38;;;6.88;;
66139;SDS011;52945;51.908;8.364;2022-11-21T07:02:59;13.40;;;6.20;;
66139;SDS011;52945;51.908;8.364;2022-11-21T07:06:01;15.02;;;6.25;;
66139;SDS011;52945;51.908;8.364;2022-11-21T07:09:02;15.27;;;6.57;;
66139;SDS011;52945;51.908;8.364;2022-11-21T07:12:03;16.73;;;6.82;;
66139;SDS011;52945;51.908;8.364;2022-11-21T07:15:22;13.57;;;6.18;;
66139;SDS011;52945;51.908;8.364;2022-11-21T07:18:22;14.38;;;6.35;;
66139;SDS011;52945;51.908;8.364;2022-11-21T07:21:23;17.40;;;6.63;;
66139;SDS011;52945;51.908;8.364;2022-11-21T07:24:23;16.55;;;6.20;;
66139;SDS011;52945;51.908;8.364;2022-11-21T07:27:24;17.92;;;6.93;;
66139;SDS011;52945;51.908;8.364;2022-11-21T07:30:25;19.15;;;6.55;;
66139;SDS011;52945;51.908;8.364;2022-11-21T07:33:25;18.45;;;7.15;;
66139;SDS011;52945;51.908;8.364;2022-11-21T07:36:26;16.70;;;7.30;;
66139;SDS011;52945;51.908;8.364;2022-11-21T07:39:27;18.55;;;7.10;;
66139;SDS011;52945;51.908;8.364;2022-11-21T07:42:27;19.98;;;7.00;;
66139;SDS011;52945;51.908;8.364;2022-11-21T07:45:28;16.08;;;6.65;;
66139;SDS011;52945;51.908;8.364;2022-11-21T07:48:28;14.23;;;6.80;;
66139;SDS011;52945;51.908;8.364;2022-11-21T07:51:29;17.00;;;6.68;;
66139;SDS011;52945;51.908;8.364;2022-11-21T07:54:30;18.70;;;6.45;;
66139;SDS011;52945;51.908;8.364;2022-11-21T07:57:30;20.05;;;7.68;;
66139;SDS011;52945;51.908;8.364;2022-11-21T08:00:32;15.48;;;6.75;;
66139;SDS011;52945;51.908;8.364;2022-11-21T08:03:35;16.38;;;7.00;;
66139;SDS011;52945;51.908;8.364;2022-11-21T08:06:36;17.42;;;7.05;;
66139;SDS011;52945;51.908;8.364;2022-11-21T08:09:36;22.55;;;8.55;;
66139;SDS011;52945;51.908;8.364;2022-11-21T08:12:37;24.15;;;8.52;;
66139;SDS011;52945;51.908;8.364;2022-11-21T08:15:38;19.30;;;8.60;;
66139;SDS011;52945;51.908;8.364;2022-11-21T08:18:38;18.48;;;8.25;;
66139;SDS011;52945;51.908;8.364;2022-11-21T08:21:39;15.98;;;7.10;;
66139;SDS011;52945;51.908;8.364;2022-11-21T08:24:40;19.50;;;7.78;;
66139;SDS011;52945;51.908;8.364;2022-11-21T08:27:40;23.73;;;8.35;;
66139;SDS011;52945;51.908;8.364;2022-11-21T08:30:41;23.75;;;8.45;;
66139;SDS011;52945;51.908;8.364;2022-11-21T08:33:41;20.10;;;8.13;;
66139;SDS011;52945;51.908;8.364;2022-11-21T08:36:42;24.42;;;7.72;;
66139;SDS011;52945;51.908;8.364;2022-11-21T08:39:43;23.30;;;8.32;;
66139;SDS011;52945;51.908;8.364;2022-11-21T08:42:43;19.55;;;7.20;;
66139;SDS011;52945;51.908;8.364;2022-11-21T08:45:44;23.48;;;7.95;;
66139;SDS011;52945;51.908;8.364;2022-11-21T08:48:44;20.50;;;8.27;;
66139;SDS011;52945;51.908;8.364;2022-11-21T08:51:45;20.42;;;7.68;;
66139;SDS011;52945;51.908;8.364;2022-11-21T08:54:49;20.98;;;8.18;;
66139;SDS011;52945;51.908;8.364;2022-11-21T08:57:49;18.30;;;7.60;;
66139;SDS011;52945;51.908;8.364;2022-11-21T09:00:50;23.40;;;7.47;;
66139;SDS011;52945;51.908;8.364;2022-11-21T09:03:50;22.08;;;7.50;;
66139;SDS011;52945;51.908;8.364;2022-11-21T09:06:51;16.92;;;6.53;;
66139;SDS011;52945;51.908;8.364;2022-11-21T09:09:51;24.98;;;8.85;;
66139;SDS011;52945;51.908;8.364;2022-11-21T09:12:52;23.30;;;8.32;;
66139;SDS011;52945;51.908;8.364;2022-11-21T09:15:52;21.75;;;7.53;;
66139;SDS011;52945;51.908;8.364;2022-11-21T09:19:12;22.02;;;7.70;;
66139;SDS011;52945;51.908;8.364;2022-11-21T09:22:12;25.52;;;8.88;;
66139;SDS011;52945;51.908;8.364;2022-11-21T09:25:13;27.92;;;8.88;;
66139;SDS011;52945;51.908;8.364;2022-11-21T09:28:13;26.45;;;9.30;;
66139;SDS011;52945;51.908;8.364;2022-11-21T09:31:14;25.00;;;8.57;;
66139;SDS011;52945;51.908;8.364;2022-11-21T09:34:15;31.10;;;9.63;;
66139;SDS011;52945;51.908;8.364;2022-11-21T09:37:16;27.52;;;9.13;;
66139;SDS011;52945;51.908;8.364;2022-11-21T09:40:17;27.00;;;7.95;;
66139;SDS011;52945;51.908;8.364;2022-11-21T09:46:44;21.55;;;7.32;;
66139;SDS011;52945;51.908;8.364;2022-11-21T09:49:55;26.98;;;7.85;;
66139;SDS011;52945;51.908;8.364;2022-11-21T09:53:06;25.38;;;8.88;;
66139;SDS011;52945;51.908;8.364;2022-11-21T09:56:13;24.70;;;8.90;;
66139;SDS011;52945;51.908;8.364;2022-11-21T10:02:32;24.30;;;8.68;;
66139;SDS011;52945;51.908;8.364;2022-11-21T10:19:13;28.48;;;8.80;;
66139;SDS011;52945;51.908;8.364;2022-11-21T10:25:55;29.60;;;8.25;;
66139;SDS011;52945;51.908;8.364;2022-11-21T10:29:01;28.27;;;8.15;;
66139;SDS011;52945;51.908;8.364;2022-11-21T10:32:10;27.00;;;8.55;;
66139;SDS011;52945;51.908;8.364;2022-11-21T10:35:34;30.05;;;9.13;;
66139;SDS011;52945;51.908;8.364;2022-11-21T10:38:44;21.45;;;7.80;;
66139;SDS011;52945;51.908;8.364;2022-11-21T10:44:55;27.13;;;8.15;;
66139;SDS011;52945;51.908;8.364;2022-11-21T10:48:15;20.98;;;7.47;;
66139;SDS011;52945;51.908;8.364;2022-11-21T10:51:36;20.60;;;8.15;;
66139;SDS011;52945;51.908;8.364;2022-11-21T10:55:01;20.20;;;7.30;;
66139;SDS011;52945;51.908;8.364;2022-11-21T10:58:02;21.67;;;6.65;;
66139;SDS011;52945;51.908;8.364;2022-11-21T11:01:17;24.25;;;8.27;;
66139;SDS011;52945;51.908;8.364;2022-11-21T11:04:18;24.58;;;7.22;;
66139;SDS011;52945;51.908;8.364;2022-11-21T11:10:27;24.23;;;8.73;;
66139;SDS011;52945;51.908;8.364;2022-11-21T11:13:28;18.77;;;6.40;;
66139;SDS011;52945;51.908;8.364;2022-11-21T11:16:34;25.45;;;7.97;;
66139;SDS011;52945;51.908;8.364;2022-11-21T11:19:35;25.83;;;8.70;;
66139;SDS011;52945;51.908;8.364;2022-11-21T11:22:35;29.50;;;8.75;;
66139;SDS011;52945;51.908;8.364;2022-11-21T11:25:36;26.00;;;8.48;;
66139;SDS011;52945;51.908;8.364;2022-11-21T11:28:37;27.73;;;8.82;;
66139;SDS011;52945;51.908;8.364;2022-11-21T11:38:00;18.90;;;7.57;;
66139;SDS011;52945;51.908;8.364;2022-11-21T11:41:06;18.40;;;7.80;;
66139;SDS011;52945;51.908;8.364;2022-11-21T11:44:17;22.60;;;9.07;;
66139;SDS011;52945;51.908;8.364;2022-11-21T11:47:53;26.83;;;8.98;;
66139;SDS011;52945;51.908;8.364;2022-11-21T11:50:56;23.65;;;8.55;;
66139;SDS011;52945;51.908;8.364;2022-11-21T11:54:14;24.25;;;7.57;;
66139;SDS011;52945;51.908;8.364;2022-11-21T11:57:18;32.85;;;8.15;;
66139;SDS011;52945;51.908;8.364;2022-11-21T12:00:21;27.80;;;8.77;;
66139;SDS011;52945;51.908;8.364;2022-11-21T12:13:12;23.90;;;8.55;;
66139;SDS011;52945;51.908;8.364;2022-11-21T12:16:17;24.52;;;8.52;;
66139;SDS011;52945;51.908;8.364;2022-11-21T12:19:19;17.02;;;7.30;;
66139;SDS011;52945;51.908;8.364;2022-11-21T12:22:19;27.52;;;8.30;;
66139;SDS011;52945;51.908;8.364;2022-11-21T12:25:22;25.77;;;9.23;;
66139;SDS011;52945;51.908;8.364;2022-11-21T12:39:12;17.67;;;6.78;;
66139;SDS011;52945;51.908;8.364;2022-11-21T12:45:54;21.55;;;6.75;;
66139;SDS011;52945;51.908;8.364;2022-11-21T12:52:41;18.13;;;7.07;;
66139;SDS011;52945;51.908;8.364;2022-11-21T12:56:10;17.90;;;7.13;;
66139;SDS011;52945;51.908;8.364;2022-11-21T12:59:20;18.13;;;6.55;;
66139;SDS011;52945;51.908;8.364;2022-11-21T13:02:26;18.25;;;6.00;;
66139;SDS011;52945;51.908;8.364;2022-11-21T13:06:02;17.88;;;5.95;;
66139;SDS011;52945;51.908;8.364;2022-11-21T13:09:06;19.23;;;6.63;;
66139;SDS011;52945;51.908;8.364;2022-11-21T13:12:14;19.95;;;6.95;;
66139;SDS011;52945;51.908;8.364;2022-11-21T13:15:28;17.80;;;6.15;;
66139;SDS011;52945;51.908;8.364;2022-11-21T13:18:45;14.88;;;6.03;;
66139;SDS011;52945;51.908;8.364;2022-11-21T13:21:48;16.00;;;5.75;;
66139;SDS011;52945;51.908;8.364;2022-11-21T13:27:52;17.35;;;6.18;;
66139;SDS011;52945;51.908;8.364;2022-11-21T13:30:54;14.95;;;6.25;;
66139;SDS011;52945;51.908;8.364;2022-11-21T13:33:55;19.10;;;6.22;;
66139;SDS011;52945;51.908;8.364;2022-11-21T13:36:57;16.48;;;6.07;;
66139;SDS011;52945;51.908;8.364;2022-11-21T13:40:33;15.80;;;6.13;;
66139;SDS011;52945;51.908;8.364;2022-11-21T13:43:27;16.48;;;5.47;;
66139;SDS011;52945;51.908;8.364;2022-11-21T13:50:42;13.95;;;5.63;;
66139;SDS011;52945;51.908;8.364;2022-11-21T14:03:29;11.77;;;5.35;;
66139;SDS011;52945;51.908;8.364;2022-11-21T14:07:22;11.32;;;5.05;;
66139;SDS011;52945;51.908;8.364;2022-11-21T14:13:28;14.57;;;5.95;;
66139;SDS011;52945;51.908;8.364;2022-11-21T14:16:41;9.98;;;4.65;;
66139;SDS011;52945;51.908;8.364;2022-11-21T14:19:47;12.18;;;4.93;;
66139;SDS011;52945;51.908;8.364;2022-11-21T14:23:00;12.55;;;5.30;;
66139;SDS011;52945;51.908;8.364;2022-11-21T14:26:16;14.73;;;5.57;;
66139;SDS011;52945;51.908;8.364;2022-11-21T14:29:39;13.43;;;5.82;;
66139;SDS011;52945;51.908;8.364;2022-11-21T14:32:40;19.63;;;5.30;;
66139;SDS011;52945;51.908;8.364;2022-11-21T14:35:40;11.75;;;5.60;;
66139;SDS011;52945;51.908;8.364;2022-11-21T14:41:41;9.80;;;5.13;;
66139;SDS011;52945;51.908;8.364;2022-11-21T14:45:04;13.57;;;5.43;;
66139;SDS011;52945;51.908;8.364;2022-11-21T14:48:10;13.80;;;5.70;;
66139;SDS011;52945;51.908;8.364;2022-11-21T14:51:13;13.70;;;5.40;;
66139;SDS011;52945;51.908;8.364;2022-11-21T14:54:39;12.32;;;5.10;;
66139;SDS011;52945;51.908;8.364;2022-11-21T14:57:49;13.15;;;5.45;;
66139;SDS011;52945;51.908;8.364;2022-11-21T15:01:02;12.80;;;4.82;;
66139;SDS011;52945;51.908;8.364;2022-11-21T15:04:06;13.57;;;5.75;;
66139;SDS011;52945;51.908;8.364;2022-11-21T15:10:31;16.02;;;5.25;;
66139;SDS011;52945;51.908;8.364;2022-11-21T15:13:34;12.50;;;5.43;;
66139;SDS011;52945;51.908;8.364;2022-11-21T15:16:35;13.60;;;5.50;;
66139;SDS011;52945;51.908;8.364;2022-11-21T15:19:36;13.20;;;5.97;;
66139;SDS011;52945;51.908;8.364;2022-11-21T15:22:37;13.82;;;5.18;;
66139;SDS011;52945;51.908;8.364;2022-11-21T15:25:43;17.58;;;6.22;;
66139;SDS011;52945;51.908;8.364;2022-11-21T15:28:53;16.33;;;5.25;;
66139;SDS011;52945;51.908;8.364;2022-11-21T15:32:04;10.70;;;5.10;;
66139;SDS011;52945;51.908;8.364;2022-11-21T15:38:31;17.38;;;5.55;;
66139;SDS011;52945;51.908;8.364;2022-11-21T15:41:40;13.15;;;5.75;;
66139;SDS011;52945;51.908;8.364;2022-11-21T15:44:55;15.02;;;6.03;;
66139;SDS011;52945;51.908;8.364;2022-11-21T15:47:59;14.70;;;5.38;;
66139;SDS011;52945;51.908;8.364;2022-11-21T15:51:00;16.20;;;6.70;;
66139;SDS011;52945;51.908;8.364;2022-11-21T15:54:01;16.02;;;6.00;;
66139;SDS011;52945;51.908;8.364;2022-11-21T15:57:02;15.55;;;6.05;;
66139;SDS011;52945;51.908;8.364;2022-11-21T16:00:03;14.38;;;6.03;;
66139;SDS011;52945;51.908;8.364;2022-11-21T16:03:04;16.00;;;5.72;;
66139;SDS011;52945;51.908;8.364;2022-11-21T16:06:04;17.35;;;6.32;;
66139;SDS011;52945;51.908;8.364;2022-11-21T16:09:05;15.10;;;5.88;;
66139;SDS011;52945;51.908;8.364;2022-11-21T16:12:06;14.48;;;6.63;;
66139;SDS011;52945;51.908;8.364;2022-11-21T16:15:08;18.75;;;7.97;;
66139;SDS011;52945;51.908;8.364;2022-11-21T16:18:08;13.25;;;6.65;;
66139;SDS011;52945;51.908;8.364;2022-11-21T16:21:09;13.20;;;5.70;;
66139;SDS011;52945;51.908;8.364;2022-11-21T16:24:10;9.75;;;4.40;;
66139;SDS011;52945;51.908;8.364;2022-11-21T16:27:11;14.18;;;5.28;;
66139;SDS011;52945;51.908;8.364;2022-11-21T16:30:12;12.68;;;5.20;;
66139;SDS011;52945;51.908;8.364;2022-11-21T16:33:13;13.73;;;5.57;;
66139;SDS011;52945;51.908;8.364;2022-11-21T16:36:20;13.73;;;5.63;;
66139;SDS011;52945;51.908;8.364;2022-11-21T16:39:24;17.77;;;6.13;;
66139;SDS011;52945;51.908;8.364;2022-11-21T16:42:24;15.30;;;6.03;;
66139;SDS011;52945;51.908;8.364;2022-11-21T16:45:25;12.25;;;4.97;;
66139;SDS011;52945;51.908;8.364;2022-11-21T16:48:26;14.57;;;6.10;;
66139;SDS011;52945;51.908;8.364;2022-11-21T16:51:27;16.70;;;6.05;;
66139;SDS011;52945;51.908;8.364;2022-11-21T16:54:28;12.65;;;5.05;;
66139;SDS011;52945;51.908;8.364;2022-11-21T16:57:28;15.32;;;6.55;;
66139;SDS011;52945;51.908;8.364;2022-11-21T17:00:31;15.45;;;5.88;;
66139;SDS011;52945;51.908;8.364;2022-11-21T17:03:31;17.05;;;5.70;;
66139;SDS011;52945;51.908;8.364;2022-11-21T17:06:32;12.35;;;5.53;;
66139;SDS011;52945;51.908;8.364;2022-11-21T17:09:33;10.88;;;5.18;;
66139;SDS011;52945;51.908;8.364;2022-11-21T17:12:34;12.55;;;5.30;;
66139;SDS011;52945;51.908;8.364;2022-11-21T17:15:37;10.90;;;4.35;;
66139;SDS011;52945;51.908;8.364;2022-11-21T17:18:38;14.88;;;6.03;;
66139;SDS011;52945;51.908;8.364;2022-11-21T17:21:39;14.32;;;5.82;;
66139;SDS011;52945;51.908;8.364;2022-11-21T17:24:40;15.55;;;5.30;;
66139;SDS011;52945;51.908;8.364;2022-11-21T17:27:40;17.10;;;6.72;;
66139;SDS011;52945;51.908;8.364;2022-11-21T17:30:41;12.13;;;5.38;;
66139;SDS011;52945;51.908;8.364;2022-11-21T17:33:43;14.95;;;5.45;;
66139;SDS011;52945;51.908;8.364;2022-11-21T17:36:49;14.48;;;5.50;;
66139;SDS011;52945;51.908;8.364;2022-11-21T17:39:49;11.00;;;4.78;;
66139;SDS011;52945;51.908;8.364;2022-11-21T17:42:50;12.63;;;4.93;;
66139;SDS011;52945;51.908;8.364;2022-11-21T17:45:50;11.25;;;4.90;;
66139;SDS011;52945;51.908;8.364;2022-11-21T17:48:55;11.30;;;5.55;;
66139;SDS011;52945;51.908;8.364;2022-11-21T17:51:57;11.18;;;4.40;;
66139;SDS011;52945;51.908;8.364;2022-11-21T17:54:57;12.18;;;4.75;;
66139;SDS011;52945;51.908;8.364;2022-11-21T17:57:58;10.50;;;4.70;;
66139;SDS011;52945;51.908;8.364;2022-11-21T18:00:59;10.13;;;4.82;;
66139;SDS011;52945;51.908;8.364;2022-11-21T18:04:02;16.80;;;5.72;;
66139;SDS011;52945;51.908;8.364;2022-11-21T18:07:04;13.25;;;5.32;;
66139;SDS011;52945;51.908;8.364;2022-11-21T18:10:05;11.68;;;5.00;;
66139;SDS011;52945;51.908;8.364;2022-11-21T18:13:06;8.80;;;3.85;;
66139;SDS011;52945;51.908;8.364;2022-11-21T18:16:12;12.40;;;4.85;;
66139;SDS011;52945;51.908;8.364;2022-11-21T18:19:15;10.02;;;3.92;;
66139;SDS011;52945;51.908;8.364;2022-11-21T18:22:15;9.88;;;3.65;;
66139;SDS011;52945;51.908;8.364;2022-11-21T18:25:16;10.77;;;4.82;;
66139;SDS011;52945;51.908;8.364;2022-11-21T18:28:16;8.50;;;3.58;;
66139;SDS011;52945;51.908;8.364;2022-11-21T18:31:18;9.57;;;3.90;;
66139;SDS011;52945;51.908;8.364;2022-11-21T18:34:20;11.18;;;3.85;;
66139;SDS011;52945;51.908;8.364;2022-11-21T18:37:20;9.05;;;4.05;;
66139;SDS011;52945;51.908;8.364;2022-11-21T18:40:21;12.52;;;3.95;;
66139;SDS011;52945;51.908;8.364;2022-11-21T18:43:21;9.95;;;3.92;;
66139;SDS011;52945;51.908;8.364;2022-11-21T18:46:22;8.63;;;3.58;;
66139;SDS011;52945;51.908;8.364;2022-11-21T18:49:24;8.60;;;3.72;;
66139;SDS011;52945;51.908;8.364;2022-11-21T18:52:25;13.27;;;4.47;;
66139;SDS011;52945;51.908;8.364;2022-11-21T18:55:26;9.82;;;4.72;;
66139;SDS011;52945;51.908;8.364;2022-11-21T18:58:27;11.20;;;4.38;;
66139;SDS011;52945;51.908;8.364;2022-11-21T19:01:28;11.60;;;4.43;;
66139;SDS011;52945;51.908;8.364;2022-11-21T19:04:28;11.35;;;4.22;;
66139;SDS011;52945;51.908;8.364;2022-11-21T19:07:29;9.07;;;3.90;;
66139;SDS011;52945;51.908;8.364;2022-11-21T19:10:30;13.45;;;4.90;;
66139;SDS011;52945;51.908;8.364;2022-11-21T19:13:30;13.00;;;4.43;;
66139;SDS011;52945;51.908;8.364;2022-11-21T19:16:31;12.57;;;4.55;;
66139;SDS011;52945;51.908;8.364;2022-11-21T19:19:33;8.10;;;4.22;;
66139;SDS011;52945;51.908;8.364;2022-11-21T19:22:33;9.57;;;4.72;;
66139;SDS011;52945;51.908;8.364;2022-11-21T19:25:34;11.07;;;4.90;;
66139;SDS011;52945;51.908;8.364;2022-11-21T19:28:35;7.80;;;3.85;;
66139;SDS011;52945;51.908;8.364;2022-11-21T19:31:35;6.55;;;3.63;;
66139;SDS011;52945;51.908;8.364;2022-11-21T19:34:36;12.40;;;4.63;;
66139;SDS011;52945;51.908;8.364;2022-11-21T19:37:37;11.88;;;4.82;;
66139;SDS011;52945;51.908;8.364;2022-11-21T19:40:37;11.45;;;4.53;;
66139;SDS011;52945;51.908;8.364;2022-11-21T19:43:57;13.93;;;4.43;;
66139;SDS011;52945;51.908;8.364;2022-11-21T19:46:58;10.13;;;4.55;;
66139;SDS011;52945;51.908;8.364;2022-11-21T19:49:59;12.18;;;4.28;;
66139;SDS011;52945;51.908;8.364;2022-11-21T19:53:00;13.07;;;4.90;;